sensor_id;sensor_type;location;lat;lon;timestamp;P1;durP1;ratioP1;P2;durP2;ratioP2
11255;SDS011;5685;52.384;13.420;2022-09-24T00:01:41;11.30;;;10.60;;
11255;SDS011;5685;52.384;13.420;2022-09-24T00:04:43;11.10;;;10.47;;
11255;SDS011;5685;52.384;13.420;2022-09-24T00:07:47;11.00;;;10.20;;
11255;SDS011;5685;52.384;13.420;2022-09-24T00:10:49;10.27;;;9.70;;
11255;SDS011;5685;52.384;13.420;2022-09-24T00:13:52;11.00;;;10.40;;
11255;SDS011;5685;52.384;13.420;2022-09-24T00:16:56;10.70;;;10.10;;
11255;SDS011;5685;52.384;13.420;2022-09-24T00:19:58;10.63;;;10.03;;
11255;SDS011;5685;52.384;13.420;2022-09-24T00:23:02;11.10;;;10.50;;
11255;SDS011;5685;52.384;13.420;2022-09-24T00:26:04;10.53;;;9.93;;
11255;SDS011;5685;52.384;13.420;2022-09-24T00:29:24;10.80;;;10.20;;
11255;SDS011;5685;52.384;13.420;2022-09-24T00:32:26;10.80;;;10.20;;
11255;SDS011;5685;52.384;13.420;2022-09-24T00:35:29;10.53;;;9.80;;
11255;SDS011;5685;52.384;13.420;2022-09-24T00:38:35;10.63;;;10.03;;
11255;SDS011;5685;52.384;13.420;2022-09-24T00:41:37;10.53;;;9.93;;
11255;SDS011;5685;52.384;13.420;2022-09-24T00:44:47;11.03;;;10.40;;
11255;SDS011;5685;52.384;13.420;2022-09-24T00:47:53;10.60;;;10.00;;
11255;SDS011;5685;52.384;13.420;2022-09-24T00:50:58;10.93;;;10.23;;
11255;SDS011;5685;52.384;13.420;2022-09-24T00:54:04;10.97;;;10.37;;
11255;SDS011;5685;52.384;13.420;2022-09-24T00:57:09;10.77;;;10.17;;
11255;SDS011;5685;52.384;13.420;2022-09-24T01:00:13;10.90;;;10.30;;
11255;SDS011;5685;52.384;13.420;2022-09-24T01:03:18;11.43;;;10.73;;
11255;SDS011;5685;52.384;13.420;2022-09-24T01:06:24;10.20;;;9.70;;
11255;SDS011;5685;52.384;13.420;2022-09-24T01:09:28;10.70;;;10.10;;
11255;SDS011;5685;52.384;13.420;2022-09-24T01:12:31;10.47;;;9.87;;
11255;SDS011;5685;52.384;13.420;2022-09-24T01:15:44;11.20;;;10.60;;
11255;SDS011;5685;52.384;13.420;2022-09-24T01:18:55;11.00;;;10.27;;
11255;SDS011;5685;52.384;13.420;2022-09-24T01:22:12;10.60;;;10.00;;
11255;SDS011;5685;52.384;13.420;2022-09-24T01:25:28;11.33;;;10.73;;
11255;SDS011;5685;52.384;13.420;2022-09-24T01:28:41;10.87;;;10.30;;
11255;SDS011;5685;52.384;13.420;2022-09-24T01:31:56;11.20;;;10.40;;
11255;SDS011;5685;52.384;13.420;2022-09-24T01:35:07;10.43;;;9.93;;
11255;SDS011;5685;52.384;13.420;2022-09-24T01:38:16;10.67;;;10.07;;
11255;SDS011;5685;52.384;13.420;2022-09-24T01:41:22;10.80;;;10.20;;
11255;SDS011;5685;52.384;13.420;2022-09-24T01:44:25;10.47;;;9.87;;
11255;SDS011;5685;52.384;13.420;2022-09-24T01:47:30;10.40;;;9.90;;
11255;SDS011;5685;52.384;13.420;2022-09-24T01:50:39;10.97;;;10.17;;
11255;SDS011;5685;52.384;13.420;2022-09-24T01:53:46;10.63;;;10.03;;
11255;SDS011;5685;52.384;13.420;2022-09-24T01:56:52;10.73;;;10.13;;
11255;SDS011;5685;52.384;13.420;2022-09-24T02:00:04;10.17;;;9.67;;
11255;SDS011;5685;52.384;13.420;2022-09-24T02:03:12;10.47;;;9.87;;
11255;SDS011;5685;52.384;13.420;2022-09-24T02:06:21;11.03;;;10.33;;
11255;SDS011;5685;52.384;13.420;2022-09-24T02:09:31;10.40;;;9.80;;
11255;SDS011;5685;52.384;13.420;2022-09-24T02:12:36;10.77;;;10.17;;
11255;SDS011;5685;52.384;13.420;2022-09-24T02:15:43;11.00;;;10.30;;
11255;SDS011;5685;52.384;13.420;2022-09-24T02:18:49;10.93;;;10.33;;
11255;SDS011;5685;52.384;13.420;2022-09-24T02:21:56;11.03;;;10.33;;
11255;SDS011;5685;52.384;13.420;2022-09-24T02:25:00;11.37;;;10.70;;
11255;SDS011;5685;52.384;13.420;2022-09-24T02:28:05;10.83;;;10.23;;
11255;SDS011;5685;52.384;13.420;2022-09-24T02:31:08;10.93;;;10.23;;
11255;SDS011;5685;52.384;13.420;2022-09-24T02:34:16;11.67;;;10.87;;
11255;SDS011;5685;52.384;13.420;2022-09-24T02:37:22;11.13;;;10.43;;
11255;SDS011;5685;52.384;13.420;2022-09-24T02:40:25;10.93;;;10.23;;
11255;SDS011;5685;52.384;13.420;2022-09-24T02:43:27;11.57;;;10.37;;
11255;SDS011;5685;52.384;13.420;2022-09-24T02:46:30;10.57;;;9.90;;
11255;SDS011;5685;52.384;13.420;2022-09-24T02:49:33;10.80;;;10.20;;
11255;SDS011;5685;52.384;13.420;2022-09-24T02:52:36;11.37;;;10.67;;
11255;SDS011;5685;52.384;13.420;2022-09-24T02:55:38;11.20;;;10.50;;
11255;SDS011;5685;52.384;13.420;2022-09-24T02:58:40;11.23;;;10.53;;
11255;SDS011;5685;52.384;13.420;2022-09-24T03:01:42;11.10;;;10.40;;
11255;SDS011;5685;52.384;13.420;2022-09-24T03:04:46;10.93;;;10.33;;
11255;SDS011;5685;52.384;13.420;2022-09-24T03:07:49;11.10;;;10.40;;
11255;SDS011;5685;52.384;13.420;2022-09-24T03:10:52;10.60;;;10.00;;
11255;SDS011;5685;52.384;13.420;2022-09-24T03:13:55;11.20;;;10.50;;
11255;SDS011;5685;52.384;13.420;2022-09-24T03:16:57;11.30;;;10.60;;
11255;SDS011;5685;52.384;13.420;2022-09-24T03:20:01;11.40;;;10.70;;
11255;SDS011;5685;52.384;13.420;2022-09-24T03:23:03;11.13;;;10.30;;
11255;SDS011;5685;52.384;13.420;2022-09-24T03:26:06;12.00;;;11.03;;
11255;SDS011;5685;52.384;13.420;2022-09-24T03:29:09;11.80;;;11.00;;
11255;SDS011;5685;52.384;13.420;2022-09-24T03:32:11;11.50;;;10.80;;
11255;SDS011;5685;52.384;13.420;2022-09-24T03:35:14;10.70;;;10.10;;
11255;SDS011;5685;52.384;13.420;2022-09-24T03:38:16;11.10;;;10.40;;
11255;SDS011;5685;52.384;13.420;2022-09-24T03:41:19;11.53;;;10.83;;
11255;SDS011;5685;52.384;13.420;2022-09-24T03:44:21;11.77;;;11.07;;
11255;SDS011;5685;52.384;13.420;2022-09-24T03:47:23;11.77;;;11.07;;
11255;SDS011;5685;52.384;13.420;2022-09-24T03:50:27;11.77;;;11.00;;
11255;SDS011;5685;52.384;13.420;2022-09-24T03:53:29;12.23;;;11.43;;
11255;SDS011;5685;52.384;13.420;2022-09-24T03:56:31;11.83;;;10.87;;
11255;SDS011;5685;52.384;13.420;2022-09-24T03:59:34;11.67;;;10.97;;
11255;SDS011;5685;52.384;13.420;2022-09-24T04:02:36;11.40;;;10.70;;
11255;SDS011;5685;52.384;13.420;2022-09-24T04:05:42;11.40;;;10.70;;
11255;SDS011;5685;52.384;13.420;2022-09-24T04:08:44;11.80;;;11.00;;
11255;SDS011;5685;52.384;13.420;2022-09-24T04:11:46;11.47;;;10.57;;
11255;SDS011;5685;52.384;13.420;2022-09-24T04:14:48;12.07;;;11.27;;
11255;SDS011;5685;52.384;13.420;2022-09-24T04:17:50;11.27;;;10.67;;
11255;SDS011;5685;52.384;13.420;2022-09-24T04:20:57;11.50;;;10.70;;
11255;SDS011;5685;52.384;13.420;2022-09-24T04:24:00;11.23;;;10.63;;
11255;SDS011;5685;52.384;13.420;2022-09-24T04:27:02;11.90;;;11.10;;
11255;SDS011;5685;52.384;13.420;2022-09-24T04:30:05;11.80;;;11.10;;
11255;SDS011;5685;52.384;13.420;2022-09-24T04:33:09;11.43;;;10.73;;
11255;SDS011;5685;52.384;13.420;2022-09-24T04:36:13;11.47;;;10.77;;
11255;SDS011;5685;52.384;13.420;2022-09-24T04:39:15;11.50;;;10.80;;
11255;SDS011;5685;52.384;13.420;2022-09-24T04:42:17;11.53;;;10.83;;
11255;SDS011;5685;52.384;13.420;2022-09-24T04:45:20;11.57;;;10.87;;
11255;SDS011;5685;52.384;13.420;2022-09-24T04:48:24;11.73;;;11.03;;
11255;SDS011;5685;52.384;13.420;2022-09-24T04:51:27;11.77;;;11.07;;
11255;SDS011;5685;52.384;13.420;2022-09-24T04:54:34;11.63;;;10.93;;
11255;SDS011;5685;52.384;13.420;2022-09-24T04:57:37;11.43;;;10.73;;
11255;SDS011;5685;52.384;13.420;2022-09-24T05:00:40;11.20;;;10.50;;
11255;SDS011;5685;52.384;13.420;2022-09-24T05:03:43;11.93;;;11.10;;
11255;SDS011;5685;52.384;13.420;2022-09-24T05:06:47;11.30;;;10.60;;
11255;SDS011;5685;52.384;13.420;2022-09-24T05:09:49;11.10;;;10.50;;
11255;SDS011;5685;52.384;13.420;2022-09-24T05:12:51;11.67;;;10.97;;
11255;SDS011;5685;52.384;13.420;2022-09-24T05:15:54;11.70;;;10.90;;
11255;SDS011;5685;52.384;13.420;2022-09-24T05:18:57;11.53;;;10.77;;
11255;SDS011;5685;52.384;13.420;2022-09-24T05:22:00;12.07;;;11.27;;
11255;SDS011;5685;52.384;13.420;2022-09-24T05:25:02;11.67;;;10.97;;
11255;SDS011;5685;52.384;13.420;2022-09-24T05:28:05;11.50;;;10.80;;
11255;SDS011;5685;52.384;13.420;2022-09-24T05:31:06;12.00;;;11.30;;
11255;SDS011;5685;52.384;13.420;2022-09-24T05:34:09;11.73;;;11.03;;
11255;SDS011;5685;52.384;13.420;2022-09-24T05:37:14;12.03;;;11.17;;
11255;SDS011;5685;52.384;13.420;2022-09-24T05:40:17;11.10;;;10.40;;
11255;SDS011;5685;52.384;13.420;2022-09-24T05:43:37;11.83;;;11.00;;
11255;SDS011;5685;52.384;13.420;2022-09-24T05:46:40;11.60;;;10.80;;
11255;SDS011;5685;52.384;13.420;2022-09-24T05:49:42;11.83;;;10.97;;
11255;SDS011;5685;52.384;13.420;2022-09-24T05:52:46;11.57;;;10.77;;
11255;SDS011;5685;52.384;13.420;2022-09-24T05:55:48;12.00;;;11.30;;
11255;SDS011;5685;52.384;13.420;2022-09-24T05:58:50;11.93;;;11.13;;
11255;SDS011;5685;52.384;13.420;2022-09-24T06:01:52;11.87;;;11.07;;
11255;SDS011;5685;52.384;13.420;2022-09-24T06:04:54;11.53;;;10.83;;
11255;SDS011;5685;52.384;13.420;2022-09-24T06:07:58;11.73;;;10.93;;
11255;SDS011;5685;52.384;13.420;2022-09-24T06:11:01;11.53;;;10.73;;
11255;SDS011;5685;52.384;13.420;2022-09-24T06:14:05;11.70;;;11.00;;
11255;SDS011;5685;52.384;13.420;2022-09-24T06:17:08;11.43;;;10.83;;
11255;SDS011;5685;52.384;13.420;2022-09-24T06:20:11;11.60;;;10.80;;
11255;SDS011;5685;52.384;13.420;2022-09-24T06:23:15;11.20;;;10.37;;
11255;SDS011;5685;52.384;13.420;2022-09-24T06:26:18;11.43;;;10.73;;
11255;SDS011;5685;52.384;13.420;2022-09-24T06:29:20;11.10;;;10.50;;
11255;SDS011;5685;52.384;13.420;2022-09-24T06:32:22;11.57;;;10.80;;
11255;SDS011;5685;52.384;13.420;2022-09-24T06:35:24;11.40;;;10.70;;
11255;SDS011;5685;52.384;13.420;2022-09-24T06:38:28;10.83;;;10.23;;
11255;SDS011;5685;52.384;13.420;2022-09-24T06:41:31;11.37;;;10.47;;
11255;SDS011;5685;52.384;13.420;2022-09-24T06:44:34;11.53;;;10.77;;
11255;SDS011;5685;52.384;13.420;2022-09-24T06:47:36;11.47;;;10.87;;
11255;SDS011;5685;52.384;13.420;2022-09-24T06:50:39;12.17;;;11.37;;
11255;SDS011;5685;52.384;13.420;2022-09-24T06:53:45;11.80;;;11.00;;
11255;SDS011;5685;52.384;13.420;2022-09-24T06:56:51;11.40;;;10.70;;
11255;SDS011;5685;52.384;13.420;2022-09-24T06:59:53;11.00;;;10.37;;
11255;SDS011;5685;52.384;13.420;2022-09-24T07:02:55;11.17;;;10.47;;
11255;SDS011;5685;52.384;13.420;2022-09-24T07:05:58;11.30;;;10.60;;
11255;SDS011;5685;52.384;13.420;2022-09-24T07:09:03;11.87;;;11.17;;
11255;SDS011;5685;52.384;13.420;2022-09-24T07:12:06;10.90;;;10.13;;
11255;SDS011;5685;52.384;13.420;2022-09-24T07:15:08;10.97;;;10.33;;
11255;SDS011;5685;52.384;13.420;2022-09-24T07:18:11;11.13;;;10.23;;
11255;SDS011;5685;52.384;13.420;2022-09-24T07:21:13;11.37;;;10.67;;
11255;SDS011;5685;52.384;13.420;2022-09-24T07:24:17;11.37;;;10.67;;
11255;SDS011;5685;52.384;13.420;2022-09-24T07:27:19;11.90;;;11.17;;
11255;SDS011;5685;52.384;13.420;2022-09-24T07:30:21;10.90;;;10.30;;
11255;SDS011;5685;52.384;13.420;2022-09-24T07:33:23;11.00;;;10.40;;
11255;SDS011;5685;52.384;13.420;2022-09-24T07:36:25;11.00;;;10.40;;
11255;SDS011;5685;52.384;13.420;2022-09-24T07:39:31;11.43;;;10.63;;
11255;SDS011;5685;52.384;13.420;2022-09-24T07:42:33;11.60;;;10.70;;
11255;SDS011;5685;52.384;13.420;2022-09-24T07:45:36;11.70;;;10.83;;
11255;SDS011;5685;52.384;13.420;2022-09-24T07:48:38;11.63;;;10.93;;
11255;SDS011;5685;52.384;13.420;2022-09-24T07:51:41;11.20;;;10.30;;
11255;SDS011;5685;52.384;13.420;2022-09-24T07:54:45;12.40;;;11.60;;
11255;SDS011;5685;52.384;13.420;2022-09-24T07:57:49;11.33;;;10.73;;
11255;SDS011;5685;52.384;13.420;2022-09-24T08:00:52;11.37;;;10.37;;
11255;SDS011;5685;52.384;13.420;2022-09-24T08:03:59;11.13;;;10.43;;
11255;SDS011;5685;52.384;13.420;2022-09-24T08:07:03;10.83;;;10.23;;
11255;SDS011;5685;52.384;13.420;2022-09-24T08:10:07;11.93;;;11.17;;
11255;SDS011;5685;52.384;13.420;2022-09-24T08:13:10;11.30;;;10.60;;
11255;SDS011;5685;52.384;13.420;2022-09-24T08:16:12;10.83;;;10.23;;
11255;SDS011;5685;52.384;13.420;2022-09-24T08:19:15;11.23;;;10.57;;
11255;SDS011;5685;52.384;13.420;2022-09-24T08:22:17;11.33;;;10.63;;
11255;SDS011;5685;52.384;13.420;2022-09-24T08:25:21;11.20;;;10.50;;
11255;SDS011;5685;52.384;13.420;2022-09-24T08:28:23;11.00;;;10.40;;
11255;SDS011;5685;52.384;13.420;2022-09-24T08:31:25;11.57;;;10.97;;
11255;SDS011;5685;52.384;13.420;2022-09-24T08:34:27;11.53;;;10.80;;
11255;SDS011;5685;52.384;13.420;2022-09-24T08:37:37;11.17;;;10.47;;
11255;SDS011;5685;52.384;13.420;2022-09-24T08:40:43;11.10;;;10.50;;
11255;SDS011;5685;52.384;13.420;2022-09-24T08:43:52;11.47;;;10.87;;
11255;SDS011;5685;52.384;13.420;2022-09-24T08:47:02;11.07;;;10.37;;
11255;SDS011;5685;52.384;13.420;2022-09-24T08:50:23;11.60;;;10.90;;
11255;SDS011;5685;52.384;13.420;2022-09-24T08:53:29;11.07;;;10.43;;
11255;SDS011;5685;52.384;13.420;2022-09-24T08:56:45;11.43;;;10.73;;
11255;SDS011;5685;52.384;13.420;2022-09-24T08:59:48;11.10;;;10.40;;
11255;SDS011;5685;52.384;13.420;2022-09-24T09:02:55;10.90;;;10.30;;
11255;SDS011;5685;52.384;13.420;2022-09-24T09:06:08;11.10;;;10.47;;
11255;SDS011;5685;52.384;13.420;2022-09-24T09:09:17;11.37;;;10.67;;
11255;SDS011;5685;52.384;13.420;2022-09-24T09:12:25;10.63;;;10.03;;
11255;SDS011;5685;52.384;13.420;2022-09-24T09:15:37;11.30;;;10.63;;
11255;SDS011;5685;52.384;13.420;2022-09-24T09:18:44;11.50;;;10.80;;
11255;SDS011;5685;52.384;13.420;2022-09-24T09:21:50;11.10;;;10.27;;
11255;SDS011;5685;52.384;13.420;2022-09-24T09:24:59;12.10;;;10.87;;
11255;SDS011;5685;52.384;13.420;2022-09-24T09:28:12;11.03;;;10.23;;
11255;SDS011;5685;52.384;13.420;2022-09-24T09:31:20;11.80;;;10.90;;
11255;SDS011;5685;52.384;13.420;2022-09-24T09:34:39;11.17;;;10.43;;
11255;SDS011;5685;52.384;13.420;2022-09-24T09:37:53;11.37;;;10.50;;
11255;SDS011;5685;52.384;13.420;2022-09-24T09:41:05;11.17;;;10.47;;
11255;SDS011;5685;52.384;13.420;2022-09-24T09:44:19;11.40;;;10.70;;
11255;SDS011;5685;52.384;13.420;2022-09-24T09:47:28;11.00;;;10.40;;
11255;SDS011;5685;52.384;13.420;2022-09-24T09:50:41;11.07;;;10.47;;
11255;SDS011;5685;52.384;13.420;2022-09-24T09:53:55;11.10;;;10.50;;
11255;SDS011;5685;52.384;13.420;2022-09-24T09:57:00;10.80;;;10.10;;
11255;SDS011;5685;52.384;13.420;2022-09-24T10:00:05;11.00;;;10.30;;
11255;SDS011;5685;52.384;13.420;2022-09-24T10:03:26;11.10;;;10.27;;
11255;SDS011;5685;52.384;13.420;2022-09-24T10:06:31;11.70;;;11.00;;
11255;SDS011;5685;52.384;13.420;2022-09-24T10:09:36;11.77;;;11.07;;
11255;SDS011;5685;52.384;13.420;2022-09-24T10:12:39;11.17;;;10.40;;
11255;SDS011;5685;52.384;13.420;2022-09-24T10:15:48;11.80;;;11.00;;
11255;SDS011;5685;52.384;13.420;2022-09-24T10:18:53;11.20;;;10.50;;
11255;SDS011;5685;52.384;13.420;2022-09-24T10:21:55;11.17;;;10.47;;
11255;SDS011;5685;52.384;13.420;2022-09-24T10:24:58;10.70;;;10.10;;
11255;SDS011;5685;52.384;13.420;2022-09-24T10:28:03;10.57;;;9.97;;
11255;SDS011;5685;52.384;13.420;2022-09-24T10:31:29;11.07;;;10.20;;
11255;SDS011;5685;52.384;13.420;2022-09-24T10:34:36;11.30;;;10.60;;
11255;SDS011;5685;52.384;13.420;2022-09-24T10:37:38;10.77;;;10.17;;
11255;SDS011;5685;52.384;13.420;2022-09-24T10:40:52;11.20;;;10.50;;
11255;SDS011;5685;52.384;13.420;2022-09-24T10:43:54;11.33;;;10.63;;
11255;SDS011;5685;52.384;13.420;2022-09-24T10:47:04;11.17;;;10.47;;
11255;SDS011;5685;52.384;13.420;2022-09-24T10:50:18;11.87;;;11.00;;
11255;SDS011;5685;52.384;13.420;2022-09-24T10:53:30;11.17;;;10.47;;
11255;SDS011;5685;52.384;13.420;2022-09-24T10:56:45;11.93;;;11.13;;
11255;SDS011;5685;52.384;13.420;2022-09-24T10:59:56;11.17;;;10.40;;
11255;SDS011;5685;52.384;13.420;2022-09-24T11:03:17;10.87;;;10.13;;
11255;SDS011;5685;52.384;13.420;2022-09-24T11:06:43;11.73;;;11.03;;
11255;SDS011;5685;52.384;13.420;2022-09-24T11:10:09;10.93;;;10.23;;
11255;SDS011;5685;52.384;13.420;2022-09-24T11:13:24;11.70;;;10.77;;
11255;SDS011;5685;52.384;13.420;2022-09-24T11:16:38;11.30;;;10.43;;
11255;SDS011;5685;52.384;13.420;2022-09-24T11:20:20;11.53;;;10.57;;
11255;SDS011;5685;52.384;13.420;2022-09-24T11:23:37;11.90;;;11.10;;
11255;SDS011;5685;52.384;13.420;2022-09-24T11:27:01;11.50;;;10.80;;
11255;SDS011;5685;52.384;13.420;2022-09-24T11:30:22;11.13;;;10.33;;
11255;SDS011;5685;52.384;13.420;2022-09-24T11:33:31;11.00;;;10.20;;
11255;SDS011;5685;52.384;13.420;2022-09-24T11:36:58;11.43;;;10.73;;
11255;SDS011;5685;52.384;13.420;2022-09-24T11:40:19;11.20;;;10.50;;
11255;SDS011;5685;52.384;13.420;2022-09-24T11:43:44;10.80;;;10.20;;
11255;SDS011;5685;52.384;13.420;2022-09-24T11:47:06;11.10;;;10.37;;
11255;SDS011;5685;52.384;13.420;2022-09-24T11:50:27;11.73;;;10.93;;
11255;SDS011;5685;52.384;13.420;2022-09-24T11:53:43;11.83;;;11.10;;
11255;SDS011;5685;52.384;13.420;2022-09-24T11:56:50;10.73;;;10.13;;
11255;SDS011;5685;52.384;13.420;2022-09-24T12:00:00;11.30;;;10.53;;
11255;SDS011;5685;52.384;13.420;2022-09-24T12:03:10;11.63;;;10.70;;
11255;SDS011;5685;52.384;13.420;2022-09-24T12:06:18;11.80;;;10.90;;
11255;SDS011;5685;52.384;13.420;2022-09-24T12:09:28;11.93;;;11.10;;
11255;SDS011;5685;52.384;13.420;2022-09-24T12:12:35;11.53;;;10.63;;
11255;SDS011;5685;52.384;13.420;2022-09-24T12:15:43;11.30;;;10.60;;
11255;SDS011;5685;52.384;13.420;2022-09-24T12:18:51;10.67;;;10.07;;
11255;SDS011;5685;52.384;13.420;2022-09-24T12:21:59;11.37;;;10.67;;
11255;SDS011;5685;52.384;13.420;2022-09-24T12:25:09;11.87;;;11.03;;
11255;SDS011;5685;52.384;13.420;2022-09-24T12:28:13;11.57;;;10.77;;
11255;SDS011;5685;52.384;13.420;2022-09-24T12:31:39;11.20;;;10.50;;
11255;SDS011;5685;52.384;13.420;2022-09-24T12:35:07;11.47;;;10.70;;
11255;SDS011;5685;52.384;13.420;2022-09-24T12:38:20;11.47;;;10.77;;
11255;SDS011;5685;52.384;13.420;2022-09-24T12:41:31;11.30;;;10.60;;
11255;SDS011;5685;52.384;13.420;2022-09-24T12:44:36;11.60;;;10.90;;
11255;SDS011;5685;52.384;13.420;2022-09-24T12:47:44;11.43;;;10.73;;
11255;SDS011;5685;52.384;13.420;2022-09-24T12:50:54;10.87;;;10.27;;
11255;SDS011;5685;52.384;13.420;2022-09-24T12:54:04;11.10;;;10.40;;
11255;SDS011;5685;52.384;13.420;2022-09-24T12:57:11;11.67;;;10.90;;
11255;SDS011;5685;52.384;13.420;2022-09-24T13:00:33;11.40;;;10.70;;
11255;SDS011;5685;52.384;13.420;2022-09-24T13:03:40;10.87;;;10.27;;
11255;SDS011;5685;52.384;13.420;2022-09-24T13:06:43;10.83;;;10.23;;
11255;SDS011;5685;52.384;13.420;2022-09-24T13:09:48;10.97;;;10.27;;
11255;SDS011;5685;52.384;13.420;2022-09-24T13:12:51;11.73;;;11.00;;
11255;SDS011;5685;52.384;13.420;2022-09-24T13:15:58;11.17;;;10.47;;
11255;SDS011;5685;52.384;13.420;2022-09-24T13:19:03;11.10;;;10.40;;
11255;SDS011;5685;52.384;13.420;2022-09-24T13:22:19;11.60;;;10.87;;
11255;SDS011;5685;52.384;13.420;2022-09-24T13:25:26;11.80;;;11.10;;
11255;SDS011;5685;52.384;13.420;2022-09-24T13:28:31;11.07;;;10.37;;
11255;SDS011;5685;52.384;13.420;2022-09-24T13:31:40;11.57;;;10.87;;
11255;SDS011;5685;52.384;13.420;2022-09-24T13:34:46;11.20;;;10.50;;
11255;SDS011;5685;52.384;13.420;2022-09-24T13:37:51;11.20;;;10.50;;
11255;SDS011;5685;52.384;13.420;2022-09-24T13:41:02;11.70;;;10.90;;
11255;SDS011;5685;52.384;13.420;2022-09-24T13:44:19;11.27;;;10.67;;
11255;SDS011;5685;52.384;13.420;2022-09-24T13:47:29;11.20;;;10.50;;
11255;SDS011;5685;52.384;13.420;2022-09-24T13:50:36;11.83;;;11.13;;
11255;SDS011;5685;52.384;13.420;2022-09-24T13:53:43;10.63;;;10.03;;
11255;SDS011;5685;52.384;13.420;2022-09-24T13:56:57;11.20;;;10.50;;
11255;SDS011;5685;52.384;13.420;2022-09-24T14:00:15;11.63;;;10.93;;
11255;SDS011;5685;52.384;13.420;2022-09-24T14:03:21;11.40;;;10.70;;
11255;SDS011;5685;52.384;13.420;2022-09-24T14:06:31;10.73;;;10.13;;
11255;SDS011;5685;52.384;13.420;2022-09-24T14:09:36;10.70;;;10.10;;
11255;SDS011;5685;52.384;13.420;2022-09-24T14:12:39;11.33;;;10.63;;
11255;SDS011;5685;52.384;13.420;2022-09-24T14:15:50;11.27;;;10.50;;
11255;SDS011;5685;52.384;13.420;2022-09-24T14:19:00;11.23;;;10.60;;
11255;SDS011;5685;52.384;13.420;2022-09-24T14:22:04;11.53;;;10.83;;
11255;SDS011;5685;52.384;13.420;2022-09-24T14:25:13;11.23;;;10.53;;
11255;SDS011;5685;52.384;13.420;2022-09-24T14:28:18;11.50;;;10.80;;
11255;SDS011;5685;52.384;13.420;2022-09-24T14:31:22;11.07;;;10.47;;
11255;SDS011;5685;52.384;13.420;2022-09-24T14:34:26;11.10;;;10.50;;
11255;SDS011;5685;52.384;13.420;2022-09-24T14:37:33;11.87;;;11.07;;
11255;SDS011;5685;52.384;13.420;2022-09-24T14:40:39;10.93;;;10.27;;
11255;SDS011;5685;52.384;13.420;2022-09-24T14:43:45;11.53;;;10.83;;
11255;SDS011;5685;52.384;13.420;2022-09-24T14:46:54;11.13;;;10.43;;
11255;SDS011;5685;52.384;13.420;2022-09-24T14:49:58;11.00;;;10.30;;
11255;SDS011;5685;52.384;13.420;2022-09-24T14:53:10;11.10;;;10.37;;
11255;SDS011;5685;52.384;13.420;2022-09-24T14:56:18;11.13;;;10.50;;
11255;SDS011;5685;52.384;13.420;2022-09-24T14:59:26;10.80;;;10.20;;
11255;SDS011;5685;52.384;13.420;2022-09-24T15:02:33;10.80;;;10.20;;
11255;SDS011;5685;52.384;13.420;2022-09-24T15:05:36;11.37;;;10.67;;
11255;SDS011;5685;52.384;13.420;2022-09-24T15:08:38;10.93;;;10.23;;
11255;SDS011;5685;52.384;13.420;2022-09-24T15:11:42;11.03;;;10.33;;
11255;SDS011;5685;52.384;13.420;2022-09-24T15:14:55;10.57;;;9.97;;
11255;SDS011;5685;52.384;13.420;2022-09-24T15:18:00;10.63;;;10.03;;
11255;SDS011;5685;52.384;13.420;2022-09-24T15:21:03;11.37;;;10.67;;
11255;SDS011;5685;52.384;13.420;2022-09-24T15:24:07;11.30;;;10.50;;
11255;SDS011;5685;52.384;13.420;2022-09-24T15:27:19;11.73;;;11.03;;
11255;SDS011;5685;52.384;13.420;2022-09-24T15:30:25;10.90;;;10.30;;
11255;SDS011;5685;52.384;13.420;2022-09-24T15:33:29;11.17;;;10.37;;
11255;SDS011;5685;52.384;13.420;2022-09-24T15:36:32;10.63;;;10.03;;
11255;SDS011;5685;52.384;13.420;2022-09-24T15:39:34;11.13;;;10.53;;
11255;SDS011;5685;52.384;13.420;2022-09-24T15:42:37;10.97;;;10.37;;
11255;SDS011;5685;52.384;13.420;2022-09-24T15:45:39;11.13;;;10.47;;
11255;SDS011;5685;52.384;13.420;2022-09-24T15:48:42;10.70;;;10.10;;
11255;SDS011;5685;52.384;13.420;2022-09-24T15:51:45;10.90;;;10.30;;
11255;SDS011;5685;52.384;13.420;2022-09-24T15:54:48;11.00;;;10.40;;
11255;SDS011;5685;52.384;13.420;2022-09-24T15:57:51;11.20;;;10.57;;
11255;SDS011;5685;52.384;13.420;2022-09-24T16:00:53;11.73;;;11.13;;
11255;SDS011;5685;52.384;13.420;2022-09-24T16:03:57;11.00;;;10.40;;
11255;SDS011;5685;52.384;13.420;2022-09-24T16:07:00;10.90;;;10.20;;
11255;SDS011;5685;52.384;13.420;2022-09-24T16:10:02;10.70;;;10.10;;
11255;SDS011;5685;52.384;13.420;2022-09-24T16:13:05;11.20;;;10.60;;
11255;SDS011;5685;52.384;13.420;2022-09-24T16:16:08;10.93;;;10.33;;
11255;SDS011;5685;52.384;13.420;2022-09-24T16:19:12;11.70;;;10.90;;
11255;SDS011;5685;52.384;13.420;2022-09-24T16:22:15;11.50;;;10.90;;
11255;SDS011;5685;52.384;13.420;2022-09-24T16:25:17;10.87;;;10.27;;
11255;SDS011;5685;52.384;13.420;2022-09-24T16:28:19;10.80;;;10.20;;
11255;SDS011;5685;52.384;13.420;2022-09-24T16:31:22;11.73;;;11.00;;
11255;SDS011;5685;52.384;13.420;2022-09-24T16:34:25;11.30;;;10.70;;
11255;SDS011;5685;52.384;13.420;2022-09-24T16:37:27;11.80;;;11.00;;
11255;SDS011;5685;52.384;13.420;2022-09-24T16:40:30;11.70;;;11.00;;
11255;SDS011;5685;52.384;13.420;2022-09-24T16:43:32;11.27;;;10.57;;
11255;SDS011;5685;52.384;13.420;2022-09-24T16:46:34;11.77;;;11.00;;
11255;SDS011;5685;52.384;13.420;2022-09-24T16:49:38;11.63;;;10.93;;
11255;SDS011;5685;52.384;13.420;2022-09-24T16:52:40;13.00;;;12.17;;
11255;SDS011;5685;52.384;13.420;2022-09-24T16:55:43;11.97;;;11.27;;
11255;SDS011;5685;52.384;13.420;2022-09-24T16:58:46;12.30;;;11.50;;
11255;SDS011;5685;52.384;13.420;2022-09-24T17:01:48;12.43;;;11.63;;
11255;SDS011;5685;52.384;13.420;2022-09-24T17:04:52;12.70;;;11.80;;
11255;SDS011;5685;52.384;13.420;2022-09-24T17:07:54;13.33;;;12.33;;
11255;SDS011;5685;52.384;13.420;2022-09-24T17:10:57;12.37;;;11.57;;
11255;SDS011;5685;52.384;13.420;2022-09-24T17:13:58;11.87;;;11.17;;
11255;SDS011;5685;52.384;13.420;2022-09-24T17:17:00;12.50;;;11.60;;
11255;SDS011;5685;52.384;13.420;2022-09-24T17:20:04;12.20;;;11.40;;
11255;SDS011;5685;52.384;13.420;2022-09-24T17:23:08;12.23;;;11.43;;
11255;SDS011;5685;52.384;13.420;2022-09-24T17:26:11;12.57;;;11.77;;
11255;SDS011;5685;52.384;13.420;2022-09-24T17:29:15;12.33;;;11.53;;
11255;SDS011;5685;52.384;13.420;2022-09-24T17:32:19;12.87;;;12.07;;
11255;SDS011;5685;52.384;13.420;2022-09-24T17:35:23;12.23;;;11.47;;
11255;SDS011;5685;52.384;13.420;2022-09-24T17:38:25;12.60;;;11.73;;
11255;SDS011;5685;52.384;13.420;2022-09-24T17:41:29;12.87;;;12.00;;
11255;SDS011;5685;52.384;13.420;2022-09-24T17:44:31;12.20;;;11.40;;
11255;SDS011;5685;52.384;13.420;2022-09-24T17:47:34;11.73;;;11.03;;
11255;SDS011;5685;52.384;13.420;2022-09-24T17:50:55;12.40;;;11.60;;
11255;SDS011;5685;52.384;13.420;2022-09-24T17:53:59;12.47;;;11.63;;
11255;SDS011;5685;52.384;13.420;2022-09-24T17:57:03;12.87;;;11.60;;
11255;SDS011;5685;52.384;13.420;2022-09-24T18:00:06;12.83;;;11.90;;
11255;SDS011;5685;52.384;13.420;2022-09-24T18:03:09;12.87;;;11.97;;
11255;SDS011;5685;52.384;13.420;2022-09-24T18:06:13;13.03;;;12.03;;
11255;SDS011;5685;52.384;13.420;2022-09-24T18:09:16;12.53;;;11.73;;